sensor_id;sensor_type;location;lat;lon;timestamp;P1;durP1;ratioP1;P2;durP2;ratioP2
28605;SDS011;46498;49.968;7.754;2023-04-01T00:02:41;9.65;;;1.12;;
28605;SDS011;46498;49.968;7.754;2023-04-01T00:07:43;7.85;;;1.30;;
28605;SDS011;46498;49.968;7.754;2023-04-01T00:12:44;7.07;;;1.20;;
28605;SDS011;46498;49.968;7.754;2023-04-01T00:17:45;6.05;;;1.33;;
28605;SDS011;46498;49.968;7.754;2023-04-01T00:22:46;9.90;;;1.73;;
28605;SDS011;46498;49.968;7.754;2023-04-01T00:27:50;7.75;;;1.58;;
28605;SDS011;46498;49.968;7.754;2023-04-01T00:32:52;8.48;;;1.90;;
28605;SDS011;46498;49.968;7.754;2023-04-01T00:37:54;9.30;;;1.15;;
28605;SDS011;46498;49.968;7.754;2023-04-01T00:42:55;7.07;;;1.20;;
28605;SDS011;46498;49.968;7.754;2023-04-01T00:47:56;5.72;;;1.10;;
28605;SDS011;46498;49.968;7.754;2023-04-01T00:53:02;9.13;;;1.02;;
28605;SDS011;46498;49.968;7.754;2023-04-01T00:58:07;8.65;;;0.90;;
28605;SDS011;46498;49.968;7.754;2023-04-01T01:03:11;17.02;;;1.95;;
28605;SDS011;46498;49.968;7.754;2023-04-01T01:08:30;12.30;;;1.80;;
28605;SDS011;46498;49.968;7.754;2023-04-01T01:13:46;7.93;;;1.00;;
28605;SDS011;46498;49.968;7.754;2023-04-01T01:37:15;7.85;;;1.10;;
28605;SDS011;46498;49.968;7.754;2023-04-01T01:42:18;8.43;;;1.15;;
28605;SDS011;46498;49.968;7.754;2023-04-01T01:52:24;5.93;;;1.00;;
28605;SDS011;46498;49.968;7.754;2023-04-01T01:57:30;5.03;;;0.75;;
28605;SDS011;46498;49.968;7.754;2023-04-01T02:02:36;7.03;;;0.75;;
28605;SDS011;46498;49.968;7.754;2023-04-01T02:07:37;5.57;;;1.30;;
28605;SDS011;46498;49.968;7.754;2023-04-01T02:12:43;4.87;;;0.70;;
28605;SDS011;46498;49.968;7.754;2023-04-01T02:17:47;7.87;;;0.98;;
28605;SDS011;46498;49.968;7.754;2023-04-01T02:22:49;3.87;;;0.73;;
28605;SDS011;46498;49.968;7.754;2023-04-01T02:27:52;6.37;;;0.85;;
28605;SDS011;46498;49.968;7.754;2023-04-01T02:32:56;4.30;;;1.05;;
28605;SDS011;46498;49.968;7.754;2023-04-01T02:37:59;5.20;;;0.90;;
28605;SDS011;46498;49.968;7.754;2023-04-01T02:43:01;10.93;;;1.05;;
28605;SDS011;46498;49.968;7.754;2023-04-01T02:48:02;6.40;;;0.95;;
28605;SDS011;46498;49.968;7.754;2023-04-01T02:53:04;6.45;;;1.10;;
28605;SDS011;46498;49.968;7.754;2023-04-01T02:58:06;3.37;;;0.95;;
28605;SDS011;46498;49.968;7.754;2023-04-01T03:03:08;8.07;;;1.08;;
28605;SDS011;46498;49.968;7.754;2023-04-01T03:08:13;7.95;;;0.80;;
28605;SDS011;46498;49.968;7.754;2023-04-01T03:13:14;6.57;;;1.17;;
28605;SDS011;46498;49.968;7.754;2023-04-01T03:18:17;5.00;;;0.73;;
28605;SDS011;46498;49.968;7.754;2023-04-01T03:23:18;6.60;;;0.90;;
28605;SDS011;46498;49.968;7.754;2023-04-01T03:28:21;7.47;;;0.85;;
28605;SDS011;46498;49.968;7.754;2023-04-01T03:33:22;7.80;;;1.30;;
28605;SDS011;46498;49.968;7.754;2023-04-01T03:38:23;3.58;;;0.65;;
28605;SDS011;46498;49.968;7.754;2023-04-01T03:43:23;8.30;;;0.90;;
28605;SDS011;46498;49.968;7.754;2023-04-01T03:48:25;6.95;;;0.85;;
28605;SDS011;46498;49.968;7.754;2023-04-01T03:53:26;4.93;;;0.73;;
28605;SDS011;46498;49.968;7.754;2023-04-01T03:58:28;4.85;;;0.70;;
28605;SDS011;46498;49.968;7.754;2023-04-01T04:03:29;7.97;;;1.70;;
28605;SDS011;46498;49.968;7.754;2023-04-01T04:08:30;3.80;;;0.80;;
28605;SDS011;46498;49.968;7.754;2023-04-01T04:13:31;6.47;;;0.93;;
28605;SDS011;46498;49.968;7.754;2023-04-01T04:18:35;4.30;;;1.00;;
28605;SDS011;46498;49.968;7.754;2023-04-01T04:23:36;11.10;;;2.08;;
28605;SDS011;46498;49.968;7.754;2023-04-01T04:28:37;5.57;;;0.90;;
28605;SDS011;46498;49.968;7.754;2023-04-01T04:33:39;2.87;;;0.68;;
28605;SDS011;46498;49.968;7.754;2023-04-01T04:38:40;6.68;;;1.20;;
28605;SDS011;46498;49.968;7.754;2023-04-01T04:43:41;9.15;;;1.12;;
28605;SDS011;46498;49.968;7.754;2023-04-01T04:48:42;4.82;;;0.62;;
28605;SDS011;46498;49.968;7.754;2023-04-01T04:53:44;6.07;;;0.90;;
28605;SDS011;46498;49.968;7.754;2023-04-01T04:58:47;2.53;;;0.45;;
28605;SDS011;46498;49.968;7.754;2023-04-01T05:03:51;4.53;;;0.77;;
28605;SDS011;46498;49.968;7.754;2023-04-01T05:08:52;1.05;;;0.47;;
28605;SDS011;46498;49.968;7.754;2023-04-01T05:13:53;3.45;;;0.50;;
28605;SDS011;46498;49.968;7.754;2023-04-01T05:18:54;3.67;;;1.00;;
28605;SDS011;46498;49.968;7.754;2023-04-01T05:23:56;4.72;;;0.80;;
28605;SDS011;46498;49.968;7.754;2023-04-01T05:28:58;3.97;;;0.62;;
28605;SDS011;46498;49.968;7.754;2023-04-01T05:33:59;2.25;;;0.50;;
28605;SDS011;46498;49.968;7.754;2023-04-01T05:39:03;3.03;;;0.45;;
28605;SDS011;46498;49.968;7.754;2023-04-01T05:44:04;2.30;;;0.40;;
28605;SDS011;46498;49.968;7.754;2023-04-01T05:50:06;5.10;;;0.50;;
28605;SDS011;46498;49.968;7.754;2023-04-01T05:55:08;4.20;;;0.80;;
28605;SDS011;46498;49.968;7.754;2023-04-01T06:00:10;4.40;;;0.75;;
28605;SDS011;46498;49.968;7.754;2023-04-01T06:05:16;2.70;;;0.60;;
28605;SDS011;46498;49.968;7.754;2023-04-01T06:10:32;2.22;;;0.68;;
28605;SDS011;46498;49.968;7.754;2023-04-01T06:15:44;5.80;;;1.73;;
28605;SDS011;46498;49.968;7.754;2023-04-01T06:21:02;1.42;;;0.55;;
28605;SDS011;46498;49.968;7.754;2023-04-01T06:26:28;1.58;;;0.68;;
28605;SDS011;46498;49.968;7.754;2023-04-01T06:31:51;1.00;;;0.30;;
28605;SDS011;46498;49.968;7.754;2023-04-01T06:47:07;1.15;;;0.30;;
28605;SDS011;46498;49.968;7.754;2023-04-01T06:54:07;2.78;;;0.30;;
28605;SDS011;46498;49.968;7.754;2023-04-01T06:59:32;8.38;;;2.25;;
28605;SDS011;46498;49.968;7.754;2023-04-01T07:04:37;1.50;;;0.50;;
28605;SDS011;46498;49.968;7.754;2023-04-01T07:09:48;4.03;;;0.85;;
28605;SDS011;46498;49.968;7.754;2023-04-01T07:33:28;0.93;;;0.50;;
28605;SDS011;46498;49.968;7.754;2023-04-01T07:38:52;0.95;;;0.40;;
28605;SDS011;46498;49.968;7.754;2023-04-01T07:47:21;1.58;;;0.90;;
28605;SDS011;46498;49.968;7.754;2023-04-01T07:54:43;1.70;;;0.90;;
28605;SDS011;46498;49.968;7.754;2023-04-01T08:00:18;0.40;;;0.30;;
28605;SDS011;46498;49.968;7.754;2023-04-01T08:05:46;2.30;;;0.35;;
28605;SDS011;46498;49.968;7.754;2023-04-01T08:10:59;0.47;;;0.20;;
28605;SDS011;46498;49.968;7.754;2023-04-01T08:23:14;1.45;;;0.68;;
28605;SDS011;46498;49.968;7.754;2023-04-01T08:28:54;0.80;;;0.30;;
28605;SDS011;46498;49.968;7.754;2023-04-01T08:34:02;0.77;;;0.35;;
28605;SDS011;46498;49.968;7.754;2023-04-01T08:39:11;1.37;;;0.75;;
28605;SDS011;46498;49.968;7.754;2023-04-01T09:23:47;0.50;;;0.30;;
28605;SDS011;46498;49.968;7.754;2023-04-01T09:50:52;0.80;;;0.30;;
28605;SDS011;46498;49.968;7.754;2023-04-01T11:21:03;0.47;;;0.20;;
28605;SDS011;46498;49.968;7.754;2023-04-01T11:32:19;1.00;;;0.30;;
28605;SDS011;46498;49.968;7.754;2023-04-01T11:45:24;0.47;;;0.40;;
28605;SDS011;46498;49.968;7.754;2023-04-01T11:50:42;0.77;;;0.40;;
28605;SDS011;46498;49.968;7.754;2023-04-01T12:19:58;0.50;;;0.47;;
28605;SDS011;46498;49.968;7.754;2023-04-01T12:49:01;1.87;;;0.10;;
28605;SDS011;46498;49.968;7.754;2023-04-01T13:15:20;2.72;;;1.70;;
28605;SDS011;46498;49.968;7.754;2023-04-01T13:20:40;0.40;;;0.20;;
28605;SDS011;46498;49.968;7.754;2023-04-01T13:31:38;1.02;;;0.30;;
28605;SDS011;46498;49.968;7.754;2023-04-01T13:36:56;1.20;;;0.75;;
28605;SDS011;46498;49.968;7.754;2023-04-01T13:48:53;0.20;;;0.20;;
28605;SDS011;46498;49.968;7.754;2023-04-01T14:21:37;0.30;;;0.20;;
28605;SDS011;46498;49.968;7.754;2023-04-01T14:28:32;7.57;;;2.72;;
28605;SDS011;46498;49.968;7.754;2023-04-01T14:35:18;1.25;;;0.43;;
28605;SDS011;46498;49.968;7.754;2023-04-01T14:48:56;0.88;;;0.32;;
28605;SDS011;46498;49.968;7.754;2023-04-01T15:01:46;4.07;;;0.85;;
28605;SDS011;46498;49.968;7.754;2023-04-01T15:15:51;2.10;;;0.93;;
28605;SDS011;46498;49.968;7.754;2023-04-01T15:23:59;1.02;;;0.60;;
28605;SDS011;46498;49.968;7.754;2023-04-01T15:39:09;0.40;;;0.20;;
28605;SDS011;46498;49.968;7.754;2023-04-01T15:50:47;0.60;;;0.43;;
28605;SDS011;46498;49.968;7.754;2023-04-01T15:55:57;1.53;;;0.50;;
28605;SDS011;46498;49.968;7.754;2023-04-01T16:01:51;0.73;;;0.50;;
28605;SDS011;46498;49.968;7.754;2023-04-01T16:07:21;0.98;;;0.43;;
28605;SDS011;46498;49.968;7.754;2023-04-01T16:18:18;2.10;;;0.62;;
28605;SDS011;46498;49.968;7.754;2023-04-01T16:32:54;1.98;;;0.40;;
28605;SDS011;46498;49.968;7.754;2023-04-01T16:46:32;1.67;;;0.90;;
28605;SDS011;46498;49.968;7.754;2023-04-01T16:58:37;1.65;;;0.30;;
28605;SDS011;46498;49.968;7.754;2023-04-01T17:03:44;3.35;;;2.20;;
28605;SDS011;46498;49.968;7.754;2023-04-01T17:09:05;1.10;;;0.62;;
28605;SDS011;46498;49.968;7.754;2023-04-01T17:14:35;4.12;;;0.90;;
28605;SDS011;46498;49.968;7.754;2023-04-01T17:28:13;4.37;;;1.10;;
28605;SDS011;46498;49.968;7.754;2023-04-01T17:39:08;1.98;;;1.20;;
28605;SDS011;46498;49.968;7.754;2023-04-01T17:45:01;5.82;;;2.97;;
28605;SDS011;46498;49.968;7.754;2023-04-01T17:50:23;3.15;;;0.93;;
28605;SDS011;46498;49.968;7.754;2023-04-01T17:57:09;2.40;;;1.40;;
28605;SDS011;46498;49.968;7.754;2023-04-01T18:03:20;0.80;;;0.50;;
28605;SDS011;46498;49.968;7.754;2023-04-01T18:08:45;2.12;;;1.35;;
28605;SDS011;46498;49.968;7.754;2023-04-01T18:15:45;1.50;;;0.70;;
28605;SDS011;46498;49.968;7.754;2023-04-01T18:47:43;2.70;;;1.95;;
28605;SDS011;46498;49.968;7.754;2023-04-01T18:52:56;2.65;;;1.70;;
28605;SDS011;46498;49.968;7.754;2023-04-01T19:04:09;1.62;;;0.80;;
28605;SDS011;46498;49.968;7.754;2023-04-01T19:09:43;3.47;;;0.90;;
28605;SDS011;46498;49.968;7.754;2023-04-01T19:14:59;2.55;;;1.05;;
28605;SDS011;46498;49.968;7.754;2023-04-01T19:21:43;1.80;;;1.40;;
28605;SDS011;46498;49.968;7.754;2023-04-01T19:46:27;2.00;;;1.05;;
28605;SDS011;46498;49.968;7.754;2023-04-01T19:51:36;4.28;;;1.83;;
28605;SDS011;46498;49.968;7.754;2023-04-01T20:02:37;3.92;;;2.03;;
28605;SDS011;46498;49.968;7.754;2023-04-01T20:07:47;3.03;;;1.80;;
28605;SDS011;46498;49.968;7.754;2023-04-01T20:13:02;2.17;;;1.20;;
28605;SDS011;46498;49.968;7.754;2023-04-01T20:18:25;2.42;;;1.80;;
28605;SDS011;46498;49.968;7.754;2023-04-01T20:23:41;2.65;;;1.77;;
28605;SDS011;46498;49.968;7.754;2023-04-01T20:50:31;4.18;;;2.72;;
28605;SDS011;46498;49.968;7.754;2023-04-01T21:06:06;3.67;;;1.65;;
28605;SDS011;46498;49.968;7.754;2023-04-01T21:26:27;6.15;;;2.65;;
28605;SDS011;46498;49.968;7.754;2023-04-01T22:04:02;5.85;;;3.53;;
28605;SDS011;46498;49.968;7.754;2023-04-01T22:09:36;4.05;;;2.87;;
28605;SDS011;46498;49.968;7.754;2023-04-01T22:15:40;4.40;;;3.20;;
28605;SDS011;46498;49.968;7.754;2023-04-01T22:21:15;3.33;;;2.20;;
28605;SDS011;46498;49.968;7.754;2023-04-01T22:34:49;3.58;;;1.75;;
28605;SDS011;46498;49.968;7.754;2023-04-01T22:48:15;3.50;;;2.42;;
28605;SDS011;46498;49.968;7.754;2023-04-01T22:53:27;3.10;;;2.30;;
28605;SDS011;46498;49.968;7.754;2023-04-01T22:59:45;3.10;;;2.37;;
28605;SDS011;46498;49.968;7.754;2023-04-01T23:04:55;7.18;;;3.33;;
28605;SDS011;46498;49.968;7.754;2023-04-01T23:09:59;6.62;;;3.03;;
28605;SDS011;46498;49.968;7.754;2023-04-01T23:28:19;1.95;;;1.37;;
28605;SDS011;46498;49.968;7.754;2023-04-01T23:33:32;2.35;;;1.52;;
28605;SDS011;46498;49.968;7.754;2023-04-01T23:38:40;3.50;;;2.25;;
28605;SDS011;46498;49.968;7.754;2023-04-01T23:43:42;3.53;;;1.80;;
28605;SDS011;46498;49.968;7.754;2023-04-01T23:48:45;3.25;;;1.50;;
28605;SDS011;46498;49.968;7.754;2023-04-01T23:53:47;4.03;;;2.00;;
